UKV6598 AYGD-AYNZ
Flight info
| Callsign | UKV6598 |
|---|---|
| Flight time | 0h 28m |
| Altitude | 10000 |
| Route | DCT |
| Aircraft | C208/L-V/N |
Departure
| Time | 2026-05-09 18:38 |
|---|---|
| Airport | Gimi Airstrip (AYGD) |
Arrival
| Time | 2026-05-09 19:06 |
|---|---|
| Airport | Nadzab Tomodachi International Airport (AYNZ) |
| Time | Latitude | Longitude | Altitude | Speed | Heading |
|---|---|---|---|---|---|
| 2026-05-09 18:32 | -6.64751 | 145.40098 | 5105 ft | 0 kts | 23° |
| 2026-05-09 18:37 | -6.64763 | 145.40056 | 5101 ft | 12 kts | 258° |
| 2026-05-09 18:37 | -6.64780 | 145.40043 | 5099 ft | 0 kts | 193° |
| 2026-05-09 18:37 | -6.65034 | 145.39944 | 5063 ft | 87 kts | 209° |
| 2026-05-09 18:37 | -6.65593 | 145.39673 | 5491 ft | 94 kts | 204° |
| 2026-05-09 18:38 | -6.66278 | 145.39744 | 5715 ft | 121 kts | 148° |
| 2026-05-09 18:38 | -6.66670 | 145.40532 | 5919 ft | 138 kts | 91° |
| 2026-05-09 18:38 | -6.66487 | 145.41490 | 6085 ft | 149 kts | 77° |
| 2026-05-09 18:40 | -6.64940 | 145.48940 | 7435 ft | 151 kts | 94° |
| 2026-05-09 18:40 | -6.65001 | 145.50000 | 7684 ft | 153 kts | 94° |
| 2026-05-09 18:40 | -6.65065 | 145.51066 | 7936 ft | 153 kts | 94° |
| 2026-05-09 18:41 | -6.65129 | 145.52140 | 8187 ft | 154 kts | 94° |
| 2026-05-09 18:41 | -6.65192 | 145.53218 | 8437 ft | 154 kts | 94° |
| 2026-05-09 18:41 | -6.65236 | 145.53945 | 8606 ft | 155 kts | 94° |
| 2026-05-09 18:41 | -6.65320 | 145.55373 | 8937 ft | 154 kts | 94° |
| 2026-05-09 18:42 | -6.65363 | 145.56103 | 9107 ft | 155 kts | 94° |
| 2026-05-09 18:42 | -6.65426 | 145.57158 | 9352 ft | 154 kts | 94° |
| 2026-05-09 18:42 | -6.65490 | 145.58238 | 9603 ft | 154 kts | 94° |
| 2026-05-09 18:42 | -6.65553 | 145.59294 | 9851 ft | 154 kts | 94° |
| 2026-05-09 18:43 | -6.65616 | 145.60383 | 9993 ft | 161 kts | 94° |
| 2026-05-09 18:43 | -6.65688 | 145.61544 | 9995 ft | 171 kts | 94° |
| 2026-05-09 18:43 | -6.65759 | 145.62757 | 9999 ft | 176 kts | 94° |
| 2026-05-09 18:43 | -6.65833 | 145.64002 | 10000 ft | 179 kts | 94° |
| 2026-05-09 18:44 | -6.65907 | 145.65259 | 10006 ft | 181 kts | 94° |
| 2026-05-09 18:44 | -6.65950 | 145.66547 | 9988 ft | 183 kts | 83° |
| 2026-05-09 18:44 | -6.65637 | 145.67757 | 10004 ft | 181 kts | 84° |
| 2026-05-09 18:44 | -6.65575 | 145.69017 | 10007 ft | 180 kts | 89° |
| 2026-05-09 18:45 | -6.65535 | 145.70272 | 10002 ft | 180 kts | 87° |
| 2026-05-09 18:45 | -6.65437 | 145.71524 | 10001 ft | 179 kts | 85° |
| 2026-05-09 18:45 | -6.65309 | 145.72767 | 10002 ft | 179 kts | 84° |
| 2026-05-09 18:45 | -6.65181 | 145.74015 | 10004 ft | 180 kts | 85° |
| 2026-05-09 18:46 | -6.65054 | 145.75282 | 10002 ft | 180 kts | 85° |
| 2026-05-09 18:46 | -6.64930 | 145.76519 | 10003 ft | 180 kts | 85° |
| 2026-05-09 18:46 | -6.64803 | 145.77768 | 10009 ft | 180 kts | 85° |
| 2026-05-09 18:46 | -6.64678 | 145.79018 | 10004 ft | 179 kts | 85° |
| 2026-05-09 18:47 | -6.64552 | 145.80266 | 10001 ft | 179 kts | 85° |
| 2026-05-09 18:47 | -6.64427 | 145.81511 | 10005 ft | 179 kts | 85° |
| 2026-05-09 18:47 | -6.64302 | 145.82753 | 10006 ft | 179 kts | 85° |
| 2026-05-09 18:47 | -6.64176 | 145.83997 | 10012 ft | 179 kts | 85° |
| 2026-05-09 18:48 | -6.64051 | 145.85243 | 10006 ft | 179 kts | 85° |
| 2026-05-09 18:48 | -6.63924 | 145.86494 | 10007 ft | 179 kts | 85° |
| 2026-05-09 18:48 | -6.63799 | 145.87743 | 10006 ft | 179 kts | 85° |
| 2026-05-09 18:48 | -6.63672 | 145.88992 | 10009 ft | 179 kts | 85° |
| 2026-05-09 18:49 | -6.63547 | 145.90240 | 10008 ft | 179 kts | 85° |
| 2026-05-09 18:49 | -6.63422 | 145.91489 | 10008 ft | 179 kts | 85° |
| 2026-05-09 18:49 | -6.63294 | 145.92736 | 10009 ft | 179 kts | 85° |
| 2026-05-09 18:49 | -6.63168 | 145.93984 | 10014 ft | 180 kts | 85° |
| 2026-05-09 18:50 | -6.63043 | 145.95231 | 10011 ft | 180 kts | 85° |
| 2026-05-09 18:50 | -6.62918 | 145.96464 | 10010 ft | 179 kts | 85° |
| 2026-05-09 18:50 | -6.62793 | 145.97711 | 10014 ft | 179 kts | 85° |
| 2026-05-09 18:50 | -6.62667 | 145.98957 | 10011 ft | 179 kts | 85° |
| 2026-05-09 18:51 | -6.62550 | 146.00120 | 10016 ft | 180 kts | 85° |
| 2026-05-09 18:51 | -6.62424 | 146.01369 | 10013 ft | 180 kts | 85° |
| 2026-05-09 18:51 | -6.62296 | 146.02617 | 10012 ft | 180 kts | 85° |
| 2026-05-09 18:51 | -6.62171 | 146.03870 | 10016 ft | 180 kts | 85° |
| 2026-05-09 18:52 | -6.62044 | 146.05116 | 10019 ft | 179 kts | 85° |
| 2026-05-09 18:52 | -6.61917 | 146.06365 | 10014 ft | 180 kts | 85° |
| 2026-05-09 18:52 | -6.61791 | 146.07615 | 10015 ft | 180 kts | 85° |
| 2026-05-09 18:52 | -6.61664 | 146.08871 | 9951 ft | 184 kts | 85° |
| 2026-05-09 18:53 | -6.61533 | 146.10181 | 9703 ft | 192 kts | 85° |
| 2026-05-09 18:53 | -6.61397 | 146.11531 | 9454 ft | 195 kts | 85° |
| 2026-05-09 18:53 | -6.61260 | 146.12893 | 9206 ft | 197 kts | 85° |
| 2026-05-09 18:53 | -6.61121 | 146.14266 | 9016 ft | 195 kts | 85° |
| 2026-05-09 18:54 | -6.60984 | 146.15598 | 9012 ft | 187 kts | 85° |
| 2026-05-09 18:54 | -6.60852 | 146.16883 | 9014 ft | 183 kts | 85° |
| 2026-05-09 18:54 | -6.60724 | 146.18149 | 9011 ft | 181 kts | 85° |
| 2026-05-09 18:54 | -6.60596 | 146.19405 | 9020 ft | 181 kts | 85° |
| 2026-05-09 18:55 | -6.60468 | 146.20662 | 9012 ft | 181 kts | 85° |
| 2026-05-09 18:55 | -6.60341 | 146.21917 | 9014 ft | 181 kts | 85° |
| 2026-05-09 18:55 | -6.60214 | 146.23181 | 8872 ft | 187 kts | 85° |
| 2026-05-09 18:55 | -6.60082 | 146.24507 | 8621 ft | 194 kts | 85° |
| 2026-05-09 18:56 | -6.59942 | 146.25870 | 8326 ft | 198 kts | 85° |
| 2026-05-09 18:56 | -6.59801 | 146.27253 | 8023 ft | 199 kts | 85° |
| 2026-05-09 18:56 | -6.59660 | 146.28643 | 7724 ft | 200 kts | 85° |
| 2026-05-09 18:56 | -6.59518 | 146.30038 | 7423 ft | 200 kts | 85° |
| 2026-05-09 18:57 | -6.59380 | 146.31400 | 7125 ft | 196 kts | 85° |
| 2026-05-09 18:57 | -6.59242 | 146.32766 | 6822 ft | 193 kts | 85° |
| 2026-05-09 18:57 | -6.59106 | 146.34099 | 6522 ft | 191 kts | 85° |
| 2026-05-09 18:57 | -6.58971 | 146.35427 | 6222 ft | 190 kts | 85° |
| 2026-05-09 18:58 | -6.58837 | 146.36745 | 5922 ft | 189 kts | 85° |
| 2026-05-09 18:58 | -6.58701 | 146.38061 | 5623 ft | 189 kts | 85° |
| 2026-05-09 18:58 | -6.58569 | 146.39369 | 5320 ft | 188 kts | 85° |
| 2026-05-09 18:58 | -6.58436 | 146.40676 | 5024 ft | 187 kts | 85° |
| 2026-05-09 18:59 | -6.58303 | 146.41977 | 4725 ft | 187 kts | 85° |
| 2026-05-09 18:59 | -6.58171 | 146.43274 | 4426 ft | 187 kts | 85° |
| 2026-05-09 18:59 | -6.58038 | 146.44575 | 4128 ft | 187 kts | 85° |
| 2026-05-09 18:59 | -6.57907 | 146.45873 | 3828 ft | 187 kts | 85° |
| 2026-05-09 19:00 | -6.57773 | 146.47172 | 3527 ft | 186 kts | 85° |
| 2026-05-09 19:00 | -6.57516 | 146.49687 | 3314 ft | 172 kts | 85° |
| 2026-05-09 19:00 | -6.57395 | 146.50863 | 3312 ft | 167 kts | 85° |
| 2026-05-09 19:01 | -6.57278 | 146.52016 | 3312 ft | 165 kts | 85° |
| 2026-05-09 19:01 | -6.57160 | 146.53163 | 3312 ft | 164 kts | 85° |
| 2026-05-09 19:01 | -6.57044 | 146.54298 | 3312 ft | 163 kts | 85° |
| 2026-05-09 19:01 | -6.56928 | 146.55428 | 3313 ft | 163 kts | 85° |
| 2026-05-09 19:02 | -6.56813 | 146.56558 | 3313 ft | 162 kts | 85° |
| 2026-05-09 19:02 | -6.56697 | 146.57686 | 3314 ft | 162 kts | 85° |
| 2026-05-09 19:02 | -6.56582 | 146.58814 | 3314 ft | 162 kts | 85° |
| 2026-05-09 19:02 | -6.56469 | 146.59929 | 2886 ft | 159 kts | 86° |
| 2026-05-09 19:03 | -6.56366 | 146.61034 | 2063 ft | 154 kts | 85° |
| 2026-05-09 19:03 | -6.56259 | 146.62047 | 2001 ft | 142 kts | 86° |
| 2026-05-09 19:03 | -6.56162 | 146.62993 | 1900 ft | 132 kts | 86° |
| 2026-05-09 19:03 | -6.56220 | 146.63894 | 1755 ft | 124 kts | 97° |
| 2026-05-09 19:04 | -6.56295 | 146.64729 | 1588 ft | 117 kts | 96° |
| 2026-05-09 19:04 | -6.56363 | 146.65524 | 1441 ft | 110 kts | 96° |
| 2026-05-09 19:04 | -6.56421 | 146.66186 | 1299 ft | 84 kts | 97° |
| 2026-05-09 19:04 | -6.56468 | 146.66775 | 1201 ft | 93 kts | 97° |
| 2026-05-09 19:05 | -6.56531 | 146.67470 | 1067 ft | 103 kts | 96° |
| 2026-05-09 19:05 | -6.56592 | 146.68194 | 927 ft | 106 kts | 96° |
| 2026-05-09 19:05 | -6.56657 | 146.68931 | 783 ft | 106 kts | 96° |
| 2026-05-09 19:05 | -6.56721 | 146.69669 | 642 ft | 104 kts | 96° |
| 2026-05-09 19:06 | -6.56789 | 146.70382 | 505 ft | 104 kts | 97° |
| 2026-05-09 19:06 | -6.56853 | 146.71116 | 362 ft | 104 kts | 95° |
| 2026-05-09 19:06 | -6.56915 | 146.71828 | 240 ft | 90 kts | 98° |
| 2026-05-09 19:06 | -6.56938 | 146.72160 | 233 ft | 28 kts | 95° |
| 2026-05-09 19:07 | -6.56961 | 146.72413 | 233 ft | 28 kts | 92° |
| 2026-05-09 19:07 | -6.56876 | 146.72498 | 233 ft | 17 kts | 5° |
| 2026-05-09 19:07 | -6.56790 | 146.72505 | 232 ft | 11 kts | 8° |
| 2026-05-09 19:07 | -6.56702 | 146.72512 | 232 ft | 23 kts | 352° |
| 2026-05-09 19:08 | -6.56623 | 146.72521 | 232 ft | 9 kts | 31° |
| 2026-05-09 19:08 | -6.56615 | 146.72584 | 232 ft | 9 kts | 101° |
| 2026-05-09 19:08 | -6.56620 | 146.72643 | 232 ft | 8 kts | 94° |
| 2026-05-09 19:08 | -6.56591 | 146.72674 | 232 ft | 7 kts | 26° |
| 2026-05-09 19:09 | -6.56570 | 146.72697 | 232 ft | 3 kts | 45° |
| 2026-05-09 19:09 | -6.56569 | 146.72698 | 232 ft | 0 kts | 45° |